createdAt,value
2022-10-23T00:00:17.285Z,94.79
2022-10-23T00:03:42.751Z,95.26
2022-10-23T00:07:07.994Z,95.50
2022-10-23T00:10:31.995Z,95.71
2022-10-23T00:13:57.158Z,95.59
2022-10-23T00:17:23.146Z,95.32
2022-10-23T00:20:48.403Z,94.46
2022-10-23T00:24:12.193Z,94.56
2022-10-23T00:27:35.967Z,93.42
2022-10-23T00:30:59.335Z,93.27
2022-10-23T00:34:24.539Z,92.95
2022-10-23T00:37:49.351Z,93.08
2022-10-23T00:41:18.448Z,92.85
2022-10-23T00:45:17.654Z,92.92
2022-10-23T00:48:41.329Z,92.84
2022-10-23T00:52:11.526Z,93.04
2022-10-23T00:55:39.337Z,92.79
2022-10-23T00:59:03.110Z,93.36
2022-10-23T01:02:26.467Z,92.80
2022-10-23T01:05:55.177Z,92.90
2022-10-23T01:09:25.922Z,92.80
2022-10-23T01:12:57.170Z,93.29
2022-10-23T01:16:26.374Z,94.24
2022-10-23T01:20:03.570Z,93.92
2022-10-23T01:23:55.101Z,93.75
2022-10-23T01:27:25.225Z,93.77
2022-10-23T01:30:50.953Z,93.82
2022-10-23T01:34:18.022Z,94.12
2022-10-23T01:37:43.530Z,94.04
2022-10-23T01:41:13.445Z,94.11
2022-10-23T01:44:42.343Z,94.13
2022-10-23T01:48:10.032Z,94.59
2022-10-23T01:51:36.344Z,94.33
2022-10-23T01:55:04.229Z,94.64
2022-10-23T01:58:31.186Z,94.27
2022-10-23T02:02:00.793Z,94.62
2022-10-23T02:05:27.441Z,95.23
2022-10-23T02:08:52.345Z,95.32
2022-10-23T02:12:33.041Z,95.39
2022-10-23T02:16:10.217Z,95.30
2022-10-23T02:19:46.178Z,95.89
2022-10-23T02:23:23.203Z,95.93
2022-10-23T02:26:53.508Z,96.20
2022-10-23T02:30:18.508Z,95.96
2022-10-23T02:33:43.211Z,96.30
2022-10-23T02:37:08.242Z,96.79
2022-10-23T02:40:38.851Z,96.48
2022-10-23T02:44:19.048Z,96.92
2022-10-23T02:47:54.881Z,96.69
2022-10-23T02:51:23.982Z,96.72
2022-10-23T02:55:09.678Z,95.98
2022-10-23T02:58:41.138Z,96.51
2022-10-23T03:02:08.867Z,95.99
2022-10-23T03:05:35.221Z,96.62
2022-10-23T03:09:02.214Z,96.47
2022-10-23T03:12:28.535Z,96.52
2022-10-23T03:15:52.518Z,96.28
2022-10-23T03:19:16.515Z,96.00
2022-10-23T03:22:40.672Z,95.47
2022-10-23T03:26:03.952Z,95.65
2022-10-23T03:29:28.243Z,96.07
2022-10-23T03:32:52.231Z,95.55
2022-10-23T03:36:17.228Z,95.89
2022-10-23T03:39:40.809Z,96.19
2022-10-23T03:43:05.074Z,95.44
2022-10-23T03:46:30.011Z,95.64
2022-10-23T03:49:53.376Z,96.07
2022-10-23T03:53:16.950Z,95.86
2022-10-23T03:56:40.215Z,95.89
2022-10-23T04:00:07.274Z,96.28
2022-10-23T04:03:32.079Z,95.72
2022-10-23T04:06:54.929Z,96.40
2022-10-23T04:10:18.916Z,95.47
2022-10-23T04:13:42.277Z,96.16
2022-10-23T04:17:05.957Z,95.57
2022-10-23T04:20:30.872Z,95.24
2022-10-23T04:23:54.745Z,94.97
2022-10-23T04:27:19.955Z,95.55
2022-10-23T04:30:43.015Z,94.88
2022-10-23T04:37:36.510Z,94.92
2022-10-23T04:40:59.676Z,94.87
2022-10-23T04:44:22.838Z,95.14
2022-10-23T04:47:45.799Z,95.43
2022-10-23T04:51:10.093Z,95.26
2022-10-23T04:54:40.322Z,94.87
2022-10-23T04:58:04.100Z,95.04
2022-10-23T05:01:28.644Z,95.71
2022-10-23T05:04:52.062Z,95.92
2022-10-23T05:08:18.062Z,96.01
2022-10-23T05:11:43.211Z,95.32
2022-10-23T05:15:08.329Z,95.49
2022-10-23T05:18:35.378Z,95.34
2022-10-23T05:22:00.274Z,95.57
2022-10-23T05:25:23.643Z,96.16
2022-10-23T05:28:48.243Z,95.90
2022-10-23T05:32:14.177Z,96.00
2022-10-23T05:35:43.274Z,96.48
2022-10-23T05:39:07.873Z,96.25
2022-10-23T05:42:32.057Z,96.84
2022-10-23T05:46:00.751Z,97.35
2022-10-23T05:49:26.480Z,96.72
2022-10-23T05:52:50.868Z,97.41
2022-10-23T05:56:14.750Z,97.08
2022-10-23T05:59:37.915Z,97.36
2022-10-23T06:03:03.638Z,97.68
2022-10-23T06:06:27.125Z,98.17
2022-10-23T06:09:50.275Z,97.80
2022-10-23T06:13:14.468Z,98.76
2022-10-23T06:16:40.497Z,98.48
2022-10-23T06:20:06.831Z,98.78
2022-10-23T06:23:33.486Z,98.97
2022-10-23T06:26:57.468Z,98.34
2022-10-23T06:30:21.439Z,98.60
2022-10-23T06:33:45.119Z,98.78
2022-10-23T06:42:02.894Z,99.40
2022-10-23T06:45:26.260Z,99.40
2022-10-23T06:48:49.950Z,99.75
2022-10-23T06:52:18.454Z,100.00
2022-10-23T11:32:23.457Z,94.89
2022-10-23T11:36:24.571Z,94.27
